createdAt,value
2018-03-26T00:00:13.650Z,3.07
2018-03-26T00:02:41.176Z,3.13
2018-03-26T00:05:08.695Z,3.15
2018-03-26T00:07:36.209Z,3.15
2018-03-26T00:10:03.717Z,3.19
2018-03-26T00:12:31.215Z,3.20
2018-03-26T00:14:58.748Z,3.20
2018-03-26T00:17:26.238Z,3.19
2018-03-26T00:19:53.783Z,3.19
2018-03-26T00:22:21.278Z,3.16
2018-03-26T00:24:48.799Z,3.16
2018-03-26T00:27:16.363Z,3.15
2018-03-26T00:29:43.808Z,3.09
2018-03-26T00:32:11.321Z,3.04
2018-03-26T00:34:38.811Z,2.96
2018-03-26T00:37:06.358Z,2.91
2018-03-26T00:39:33.837Z,2.88
2018-03-26T00:42:01.386Z,2.84
2018-03-26T00:44:28.893Z,2.79
2018-03-26T00:46:56.412Z,2.71
2018-03-26T00:49:23.902Z,2.64
2018-03-26T00:51:51.419Z,2.60
2018-03-26T00:54:18.906Z,2.56
2018-03-26T00:56:46.416Z,2.49
2018-03-26T00:59:13.917Z,2.41
2018-03-26T01:01:41.430Z,2.30
2018-03-26T01:04:08.928Z,2.28
2018-03-26T01:06:36.446Z,2.26
2018-03-26T01:09:03.967Z,2.27
2018-03-26T01:11:31.486Z,2.30
2018-03-26T01:13:58.970Z,2.32
2018-03-26T01:16:26.487Z,2.35
2018-03-26T01:18:53.983Z,2.38
2018-03-26T01:21:21.522Z,2.42
2018-03-26T01:23:49.037Z,2.47
2018-03-26T01:26:16.522Z,2.58
2018-03-26T01:28:44.035Z,2.67
2018-03-26T01:31:11.527Z,2.71
2018-03-26T01:33:39.058Z,2.73
2018-03-26T01:36:06.563Z,2.75
2018-03-26T01:38:34.090Z,2.82
2018-03-26T01:41:01.584Z,2.91
2018-03-26T01:43:29.094Z,2.96
2018-03-26T01:45:56.586Z,3.02
2018-03-26T01:48:24.091Z,3.02
2018-03-26T01:50:51.582Z,3.04
2018-03-26T01:53:19.098Z,3.06
2018-03-26T01:55:46.594Z,3.09
2018-03-26T01:58:14.106Z,3.14
2018-03-26T02:00:41.610Z,3.18
2018-03-26T02:03:09.121Z,3.23
2018-03-26T02:05:36.629Z,3.24
2018-03-26T02:08:04.139Z,3.28
2018-03-26T02:10:31.632Z,3.31
2018-03-26T02:12:59.174Z,3.34
2018-03-26T02:15:26.661Z,3.37
2018-03-26T02:17:54.178Z,3.44
2018-03-26T02:20:21.667Z,3.52
2018-03-26T02:22:49.156Z,3.58
2018-03-26T02:25:16.667Z,3.62
2018-03-26T02:27:44.167Z,3.64
2018-03-26T02:30:11.704Z,3.63
2018-03-26T02:32:39.223Z,3.68
2018-03-26T02:35:06.745Z,3.71
2018-03-26T02:37:34.239Z,3.77
2018-03-26T02:40:01.758Z,3.80
2018-03-26T02:42:29.262Z,3.79
2018-03-26T02:44:56.775Z,3.73
2018-03-26T02:47:24.268Z,3.78
2018-03-26T02:49:51.785Z,3.76
2018-03-26T02:52:19.278Z,3.73
2018-03-26T02:54:46.824Z,3.78
2018-03-26T02:57:14.319Z,3.73
2018-03-26T02:59:41.828Z,3.71
2018-03-26T03:02:09.322Z,3.68
2018-03-26T03:04:36.834Z,3.69
2018-03-26T03:07:04.318Z,3.66
2018-03-26T03:09:31.835Z,3.71
2018-03-26T03:11:59.343Z,3.71
2018-03-26T03:14:26.854Z,3.71
2018-03-26T03:16:54.343Z,3.65
2018-03-26T03:19:21.830Z,3.62
2018-03-26T03:21:49.355Z,3.60
2018-03-26T03:24:16.851Z,3.49
2018-03-26T03:26:44.359Z,3.36
2018-03-26T03:29:11.851Z,3.36
2018-03-26T03:31:39.371Z,3.31
2018-03-26T03:34:06.888Z,3.24
2018-03-26T03:36:34.428Z,3.20
2018-03-26T03:39:01.933Z,3.17
2018-03-26T03:41:29.451Z,3.10
2018-03-26T03:43:57.910Z,3.01
2018-03-26T03:46:25.424Z,2.89
2018-03-26T03:48:52.914Z,2.81
2018-03-26T03:51:20.462Z,2.75
2018-03-26T03:53:48.136Z,2.65
2018-03-26T03:56:15.665Z,2.58
2018-03-26T03:58:43.231Z,2.53
2018-03-26T04:01:10.776Z,2.43
2018-03-26T04:03:38.296Z,2.33
2018-03-26T04:06:05.811Z,2.14
2018-03-26T04:08:33.304Z,2.07
2018-03-26T04:11:00.854Z,2.05
2018-03-26T04:13:28.342Z,1.99
2018-03-26T04:15:55.835Z,1.86
2018-03-26T04:18:23.370Z,1.80
2018-03-26T04:20:50.862Z,1.80
2018-03-26T04:23:18.383Z,1.80
2018-03-26T04:25:45.918Z,1.77
2018-03-26T04:28:13.418Z,1.70
2018-03-26T04:30:40.929Z,1.69
2018-03-26T04:33:08.442Z,1.69
2018-03-26T04:35:35.950Z,1.63
2018-03-26T04:38:03.458Z,1.57
2018-03-26T04:40:30.983Z,1.50
2018-03-26T04:42:58.507Z,1.46
2018-03-26T04:45:25.997Z,1.40
2018-03-26T04:47:53.515Z,1.26
2018-03-26T04:50:21.009Z,1.29
2018-03-26T04:52:48.582Z,1.35
2018-03-26T04:55:16.078Z,1.38
2018-03-26T04:57:43.599Z,1.34
2018-03-26T05:00:11.098Z,1.26
2018-03-26T05:02:38.662Z,1.22
2018-03-26T05:05:06.155Z,1.18
2018-03-26T05:07:33.655Z,1.15
2018-03-26T05:10:01.171Z,1.14
2018-03-26T05:12:28.679Z,1.14
2018-03-26T05:14:56.201Z,1.20
2018-03-26T05:17:23.694Z,1.22
2018-03-26T05:19:51.220Z,1.27
2018-03-26T05:22:18.707Z,1.29
2018-03-26T05:24:46.255Z,1.34
2018-03-26T05:27:13.753Z,1.45
2018-03-26T05:29:41.265Z,1.49
2018-03-26T05:32:08.769Z,1.57
2018-03-26T05:34:36.311Z,1.64
2018-03-26T05:37:03.797Z,1.75
2018-03-26T05:39:31.337Z,1.85
2018-03-26T05:41:58.876Z,1.96
2018-03-26T05:44:26.390Z,2.11
2018-03-26T05:46:53.874Z,2.16
2018-03-26T05:49:21.395Z,2.26
2018-03-26T05:51:48.902Z,2.35
2018-03-26T05:54:16.414Z,2.49
2018-03-26T05:56:43.911Z,2.54
2018-03-26T05:59:11.432Z,2.67
2018-03-26T06:01:38.965Z,2.69
2018-03-26T06:04:06.454Z,2.79
2018-03-26T06:06:33.966Z,2.90
2018-03-26T06:09:01.473Z,2.94
2018-03-26T06:11:29.033Z,2.97
2018-03-26T06:13:56.532Z,3.07
2018-03-26T06:16:24.044Z,3.28
2018-03-26T06:18:51.554Z,3.38
2018-03-26T06:21:19.079Z,3.54
2018-03-26T06:23:47.398Z,3.66
2018-03-26T06:26:15.002Z,3.75
2018-03-26T06:28:42.501Z,3.82
2018-03-26T06:31:10.107Z,3.93
2018-03-26T06:33:37.615Z,4.01
2018-03-26T06:36:06.669Z,4.16
2018-03-26T06:38:39.662Z,4.34
2018-03-26T06:41:07.193Z,4.52
2018-03-26T06:43:34.680Z,4.52
2018-03-26T06:46:02.203Z,4.29
2018-03-26T06:48:29.700Z,4.38
2018-03-26T06:50:57.224Z,4.46
2018-03-26T06:53:24.753Z,4.77
2018-03-26T06:55:52.308Z,5.08
2018-03-26T06:58:19.819Z,5.36
2018-03-26T07:00:47.319Z,5.60
2018-03-26T07:03:14.883Z,5.50
2018-03-26T07:05:42.382Z,5.68
2018-03-26T07:08:09.901Z,6.33
2018-03-26T07:10:37.403Z,6.66
2018-03-26T07:13:04.919Z,7.01
2018-03-26T07:15:32.483Z,7.11
2018-03-26T07:17:59.990Z,7.20
2018-03-26T07:20:27.488Z,7.18
2018-03-26T07:22:55.006Z,7.08
2018-03-26T07:25:22.503Z,6.49
2018-03-26T07:27:50.032Z,6.05
2018-03-26T07:30:17.522Z,6.34
2018-03-26T07:32:45.047Z,6.81
2018-03-26T07:35:12.557Z,7.27
2018-03-26T07:37:40.072Z,7.20
2018-03-26T07:40:07.680Z,7.00
2018-03-26T07:42:35.205Z,6.82
2018-03-26T07:45:02.691Z,6.88
2018-03-26T07:47:30.206Z,6.95
2018-03-26T07:49:57.700Z,6.85
2018-03-26T07:52:25.233Z,6.95
2018-03-26T07:54:52.722Z,7.10
2018-03-26T07:57:20.231Z,7.30
2018-03-26T07:59:47.751Z,7.27
2018-03-26T08:02:15.275Z,7.39
2018-03-26T08:04:42.894Z,7.49
2018-03-26T08:07:10.386Z,7.53
2018-03-26T08:09:37.903Z,7.64
2018-03-26T08:12:05.393Z,7.77
2018-03-26T08:14:32.925Z,8.05
2018-03-26T08:17:00.476Z,8.05
2018-03-26T08:19:27.963Z,8.28
2018-03-26T08:21:56.158Z,8.10
2018-03-26T08:24:23.679Z,8.28
2018-03-26T08:26:51.174Z,8.32
2018-03-26T08:29:18.694Z,8.41
2018-03-26T08:31:46.197Z,8.29
2018-03-26T08:34:13.715Z,8.37
2018-03-26T08:36:41.202Z,8.24
2018-03-26T08:39:08.738Z,7.98
2018-03-26T08:41:36.280Z,8.37
2018-03-26T08:44:03.794Z,8.49
2018-03-26T08:46:31.306Z,8.42
2018-03-26T08:48:58.872Z,8.28
2018-03-26T08:51:26.371Z,8.65
2018-03-26T08:53:53.866Z,8.95
2018-03-26T08:56:21.399Z,8.98
2018-03-26T08:58:48.929Z,9.00
2018-03-26T09:01:16.476Z,9.32
2018-03-26T09:03:43.998Z,9.45
2018-03-26T09:06:11.528Z,9.69
2018-03-26T09:08:39.028Z,9.88
2018-03-26T09:11:06.578Z,10.01
2018-03-26T09:13:34.096Z,10.11
2018-03-26T09:16:01.647Z,10.24
2018-03-26T09:18:29.142Z,10.27
2018-03-26T09:20:56.674Z,10.21
2018-03-26T09:23:24.166Z,10.34
2018-03-26T09:25:51.729Z,10.43
2018-03-26T09:28:19.198Z,10.48
2018-03-26T09:30:46.753Z,10.54
2018-03-26T09:33:14.268Z,10.66
2018-03-26T09:35:41.781Z,10.65
2018-03-26T09:38:09.285Z,10.90
2018-03-26T09:40:36.807Z,11.16
2018-03-26T09:43:04.320Z,11.35
2018-03-26T09:45:31.818Z,11.09
2018-03-26T09:47:59.346Z,11.08
2018-03-26T09:50:26.851Z,11.09
2018-03-26T09:52:54.394Z,10.94
2018-03-26T09:55:21.891Z,11.09
2018-03-26T09:57:49.416Z,11.28
2018-03-26T10:00:17.849Z,11.29
2018-03-26T10:02:45.378Z,11.29
2018-03-26T10:05:13.718Z,11.38
2018-03-26T10:07:41.260Z,11.41
2018-03-26T10:10:08.754Z,11.56
2018-03-26T10:12:36.279Z,11.60
2018-03-26T10:15:03.778Z,11.65
2018-03-26T10:17:31.294Z,11.66
2018-03-26T10:19:58.788Z,11.95
2018-03-26T10:22:26.320Z,12.08
2018-03-26T10:24:53.819Z,12.34
2018-03-26T10:27:21.338Z,12.00
2018-03-26T10:29:48.847Z,12.31
2018-03-26T10:32:16.390Z,12.56
2018-03-26T10:34:43.926Z,12.25
2018-03-26T10:37:11.616Z,12.45
2018-03-26T10:39:39.146Z,12.67
2018-03-26T10:42:06.658Z,12.87
2018-03-26T10:44:34.174Z,12.94
2018-03-26T10:47:01.683Z,12.94
2018-03-26T10:49:29.230Z,13.03
2018-03-26T10:51:56.747Z,13.30
2018-03-26T10:54:24.357Z,13.54
2018-03-26T10:56:51.877Z,13.46
2018-03-26T10:59:19.514Z,13.62
2018-03-26T11:01:48.144Z,13.30
2018-03-26T11:04:15.696Z,13.48
2018-03-26T11:06:43.382Z,13.48
2018-03-26T11:09:10.949Z,13.50
2018-03-26T11:11:38.493Z,12.95
2018-03-26T11:14:06.107Z,11.81
2018-03-26T11:16:33.623Z,11.03
2018-03-26T11:19:01.318Z,10.78
2018-03-26T11:21:28.809Z,10.51
2018-03-26T11:23:57.196Z,10.63
2018-03-26T11:26:24.827Z,10.22
2018-03-26T11:28:52.372Z,10.31
2018-03-26T11:31:19.966Z,10.39
2018-03-26T11:33:47.484Z,10.40
2018-03-26T11:36:16.087Z,10.38
2018-03-26T11:38:43.710Z,10.62
2018-03-26T11:41:11.228Z,10.68
2018-03-26T11:43:38.742Z,11.10
2018-03-26T11:46:06.356Z,11.30
2018-03-26T11:48:33.865Z,11.57
2018-03-26T11:51:01.581Z,11.78
2018-03-26T11:53:29.090Z,11.78
2018-03-26T11:55:56.621Z,10.45
2018-03-26T11:58:24.246Z,10.55
2018-03-26T12:00:51.794Z,10.22
2018-03-26T12:03:19.428Z,10.38
2018-03-26T12:05:46.947Z,10.46
2018-03-26T12:08:14.451Z,10.81
2018-03-26T12:10:41.969Z,10.96
2018-03-26T12:13:09.490Z,11.45
2018-03-26T12:15:37.167Z,11.83
2018-03-26T12:18:04.793Z,11.94
2018-03-26T12:20:44.026Z,12.06
2018-03-26T12:23:23.580Z,10.91
2018-03-26T12:25:51.136Z,10.50
2018-03-26T12:28:30.411Z,10.78
2018-03-26T12:30:58.203Z,11.10
2018-03-26T12:33:25.731Z,11.04
2018-03-26T12:35:55.717Z,10.65
2018-03-26T12:38:23.294Z,10.80
2018-03-26T12:40:51.513Z,11.04
2018-03-26T12:43:19.073Z,11.07
2018-03-26T12:48:47.529Z,11.94
2018-03-26T12:51:26.887Z,11.84
2018-03-26T12:53:54.410Z,11.16
2018-03-26T12:56:22.102Z,11.48
2018-03-26T12:58:49.666Z,11.38
2018-03-26T13:01:29.032Z,10.90
2018-03-26T13:03:56.831Z,10.90
2018-03-26T13:06:24.469Z,11.06
2018-03-26T13:08:51.987Z,10.78
2018-03-26T13:11:19.486Z,10.75
2018-03-26T13:13:48.052Z,10.96
2018-03-26T13:16:15.652Z,10.95
2018-03-26T13:18:43.216Z,10.64
2018-03-26T13:21:10.701Z,10.58
2018-03-26T13:23:38.554Z,10.35
2018-03-26T13:26:06.091Z,10.48
2018-03-26T13:28:33.618Z,10.75
2018-03-26T13:31:01.292Z,11.09
2018-03-26T13:33:28.846Z,10.75
2018-03-26T13:35:56.332Z,10.70
2018-03-26T13:38:24.135Z,10.95
2018-03-26T13:40:51.623Z,11.19
2018-03-26T13:43:19.117Z,11.66
2018-03-26T13:45:46.630Z,11.92
2018-03-26T13:48:14.279Z,11.99
2018-03-26T13:50:41.824Z,12.16
2018-03-26T13:53:09.310Z,11.61
2018-03-26T13:55:36.836Z,11.56
2018-03-26T13:58:04.327Z,11.43
2018-03-26T14:00:31.848Z,11.82
2018-03-26T14:02:59.347Z,11.56
2018-03-26T14:05:26.878Z,11.53
2018-03-26T14:07:54.370Z,11.18
2018-03-26T14:13:52.229Z,11.27
2018-03-26T14:16:31.422Z,11.66
2018-03-26T14:18:58.915Z,11.90
2018-03-26T14:21:26.422Z,11.39
2018-03-26T14:23:53.923Z,11.04
2018-03-26T14:26:21.439Z,10.87
2018-03-26T14:28:48.939Z,11.24
2018-03-26T14:31:16.458Z,11.18
2018-03-26T14:33:43.952Z,10.99
2018-03-26T14:36:11.477Z,11.13
2018-03-26T14:38:38.995Z,10.70
2018-03-26T14:41:06.512Z,10.54
2018-03-26T14:43:34.007Z,10.42
2018-03-26T14:46:01.535Z,10.43
2018-03-26T14:48:29.031Z,10.53
2018-03-26T14:50:56.553Z,10.45
2018-03-26T14:53:24.070Z,10.77
2018-03-26T14:55:51.564Z,11.07
2018-03-26T14:58:19.083Z,11.01
2018-03-26T15:00:46.598Z,10.86
2018-03-26T15:03:14.111Z,10.69
2018-03-26T15:05:41.625Z,10.74
2018-03-26T15:08:09.133Z,10.84
2018-03-26T15:10:36.638Z,10.94
2018-03-26T15:13:04.200Z,10.94
2018-03-26T15:15:31.691Z,10.95
2018-03-26T15:17:59.211Z,10.65
2018-03-26T15:20:26.739Z,10.38
2018-03-26T15:22:54.250Z,10.57
2018-03-26T15:25:21.737Z,10.58
2018-03-26T15:27:49.248Z,10.62
2018-03-26T15:30:16.735Z,10.64
2018-03-26T15:32:44.249Z,10.59
2018-03-26T15:35:11.743Z,10.45
2018-03-26T15:37:39.262Z,10.35
2018-03-26T15:40:06.759Z,10.19
2018-03-26T15:42:34.287Z,10.23
2018-03-26T15:45:01.776Z,10.31
2018-03-26T15:47:29.279Z,10.28
2018-03-26T15:49:56.789Z,10.19
2018-03-26T15:52:24.283Z,10.17
2018-03-26T15:54:51.808Z,10.08
2018-03-26T15:57:19.302Z,10.09
2018-03-26T15:59:46.824Z,10.02
2018-03-26T16:02:13.772Z,10.03
2018-03-26T16:04:41.320Z,9.90
2018-03-26T16:07:08.830Z,9.80
2018-03-26T16:09:36.343Z,9.69
2018-03-26T16:12:03.835Z,9.63
2018-03-26T16:14:31.357Z,9.72
2018-03-26T16:16:58.873Z,9.76
2018-03-26T16:19:26.388Z,9.73
2018-03-26T16:21:53.870Z,9.75
2018-03-26T16:24:21.353Z,9.79
2018-03-26T16:26:48.858Z,9.84
2018-03-26T16:29:16.348Z,9.84
2018-03-26T16:31:43.861Z,9.77
2018-03-26T16:34:11.353Z,9.77
2018-03-26T16:36:38.903Z,9.74
2018-03-26T16:39:06.399Z,9.76
2018-03-26T16:41:45.698Z,9.72
2018-03-26T16:44:13.186Z,9.68
2018-03-26T16:46:40.699Z,9.69
2018-03-26T16:49:08.198Z,9.62
2018-03-26T16:51:35.715Z,9.58
2018-03-26T16:54:03.198Z,9.49
2018-03-26T16:56:30.705Z,9.43
2018-03-26T16:58:58.204Z,9.39
2018-03-26T17:01:25.723Z,9.36
2018-03-26T17:03:53.247Z,9.35
2018-03-26T17:06:20.777Z,9.26
2018-03-26T17:08:48.264Z,9.19
2018-03-26T17:11:15.810Z,9.06
2018-03-26T17:13:43.299Z,8.94
2018-03-26T17:16:10.898Z,8.84
2018-03-26T17:18:38.410Z,8.76
2018-03-26T17:21:05.925Z,8.73
2018-03-26T17:23:33.406Z,8.67
2018-03-26T17:26:00.895Z,8.64
2018-03-26T17:28:28.420Z,8.57
2018-03-26T17:30:55.905Z,8.28
2018-03-26T17:33:23.405Z,8.48
2018-03-26T17:35:51.000Z,8.38
2018-03-26T17:38:18.519Z,8.30
2018-03-26T17:40:46.002Z,8.31
2018-03-26T17:43:13.506Z,8.35
2018-03-26T17:45:41.018Z,8.30
2018-03-26T17:48:08.563Z,8.26
2018-03-26T17:50:36.106Z,8.20
2018-03-26T17:53:03.616Z,8.12
2018-03-26T17:55:31.100Z,8.11
2018-03-26T17:57:58.638Z,8.08
2018-03-26T18:00:26.122Z,8.05
2018-03-26T18:02:53.634Z,8.01
2018-03-26T18:05:21.126Z,7.98
2018-03-26T18:07:48.707Z,7.97
2018-03-26T18:10:16.251Z,7.93
2018-03-26T18:12:43.722Z,7.90
2018-03-26T18:15:11.202Z,7.84
2018-03-26T18:17:38.718Z,7.87
2018-03-26T18:20:06.301Z,7.78
2018-03-26T18:22:33.791Z,7.76
2018-03-26T18:25:01.335Z,7.67
2018-03-26T18:27:28.826Z,7.68
2018-03-26T18:29:56.345Z,7.63
2018-03-26T18:32:23.830Z,7.61
2018-03-26T18:34:51.359Z,7.62
2018-03-26T18:37:18.849Z,7.59
2018-03-26T18:39:46.358Z,7.58
2018-03-26T18:42:13.838Z,7.57
2018-03-26T18:44:41.349Z,7.56
2018-03-26T18:47:08.846Z,7.54
2018-03-26T18:49:36.372Z,7.37
2018-03-26T18:52:04.650Z,7.49
2018-03-26T18:54:32.160Z,7.44
2018-03-26T18:56:59.720Z,7.40
2018-03-26T18:59:27.195Z,7.38
2018-03-26T19:01:54.677Z,7.35
2018-03-26T19:04:22.188Z,7.33
2018-03-26T19:06:49.670Z,7.32
2018-03-26T19:09:17.200Z,7.29
2018-03-26T19:11:44.686Z,7.25
2018-03-26T19:14:12.235Z,7.23
2018-03-26T19:16:39.781Z,7.22
2018-03-26T19:19:07.266Z,7.17
2018-03-26T19:21:34.783Z,7.12
2018-03-26T19:24:02.299Z,7.05
2018-03-26T19:26:29.818Z,7.03
2018-03-26T19:28:57.348Z,7.01
2018-03-26T19:31:24.870Z,7.00
2018-03-26T19:33:52.413Z,7.00
2018-03-26T19:36:19.918Z,7.00
2018-03-26T19:38:47.399Z,6.95
2018-03-26T19:41:14.917Z,6.93
2018-03-26T19:43:42.401Z,6.94
2018-03-26T19:46:09.916Z,6.93
2018-03-26T19:48:37.417Z,6.96
2018-03-26T19:51:04.930Z,6.98
2018-03-26T19:53:32.414Z,6.97
2018-03-26T19:55:59.929Z,6.99
2018-03-26T19:58:27.435Z,6.98
2018-03-26T20:00:54.959Z,6.95
2018-03-26T20:03:22.444Z,6.91
2018-03-26T20:05:49.967Z,6.92
2018-03-26T20:08:17.456Z,6.94
2018-03-26T20:10:45.001Z,6.96
2018-03-26T20:13:12.475Z,6.92
2018-03-26T20:15:39.960Z,6.90
2018-03-26T20:18:07.463Z,6.90
2018-03-26T20:20:34.944Z,6.91
2018-03-26T20:23:02.511Z,6.92
2018-03-26T20:25:30.000Z,6.91
2018-03-26T20:27:57.511Z,6.91
2018-03-26T20:30:24.993Z,6.86
2018-03-26T20:32:52.499Z,6.86
2018-03-26T20:35:19.992Z,6.87
2018-03-26T20:37:47.495Z,6.87
2018-03-26T20:40:14.994Z,6.86
2018-03-26T20:42:42.506Z,6.86
2018-03-26T20:45:09.990Z,6.84
2018-03-26T20:47:37.506Z,6.85
2018-03-26T20:50:04.995Z,6.84
2018-03-26T20:52:32.510Z,6.83
2018-03-26T20:55:00.002Z,5.70
2018-03-26T20:57:27.522Z,6.82
2018-03-26T20:59:55.008Z,6.81
2018-03-26T21:02:22.524Z,6.80
2018-03-26T21:04:50.015Z,6.79
2018-03-26T21:07:17.526Z,6.76
2018-03-26T21:09:45.010Z,6.78
2018-03-26T21:12:12.495Z,6.76
2018-03-26T21:14:40.002Z,6.75
2018-03-26T21:17:07.511Z,6.76
2018-03-26T21:19:35.092Z,6.77
2018-03-26T21:22:02.626Z,6.73
2018-03-26T21:24:30.200Z,6.67
2018-03-26T21:26:57.701Z,6.64
2018-03-26T21:29:25.236Z,6.63
2018-03-26T21:31:54.602Z,6.62
2018-03-26T21:34:22.285Z,6.61
2018-03-26T21:36:49.819Z,6.61
2018-03-26T21:39:17.339Z,6.64
2018-03-26T21:41:44.847Z,6.60
2018-03-26T21:44:12.372Z,6.62
2018-03-26T21:46:39.889Z,6.63
2018-03-26T21:49:07.522Z,6.60
2018-03-26T21:51:35.008Z,6.58
2018-03-26T21:54:02.528Z,6.51
2018-03-26T21:56:30.049Z,6.55
2018-03-26T21:58:57.575Z,6.55
2018-03-26T22:01:25.154Z,6.55
2018-03-26T22:03:52.678Z,6.56
2018-03-26T22:06:20.194Z,6.49
2018-03-26T22:08:47.748Z,6.49
2018-03-26T22:11:15.300Z,6.48
2018-03-26T22:13:42.791Z,6.49
2018-03-26T22:16:10.303Z,6.49
2018-03-26T22:18:37.849Z,6.46
2018-03-26T22:21:05.371Z,6.42
2018-03-26T22:23:32.874Z,6.42
2018-03-26T22:26:00.398Z,6.40
2018-03-26T22:28:28.997Z,6.40
2018-03-26T22:30:56.512Z,6.41
2018-03-26T22:33:24.034Z,6.41
2018-03-26T22:35:51.601Z,6.39
2018-03-26T22:38:19.175Z,6.35
2018-03-26T22:40:46.691Z,6.35
2018-03-26T22:43:14.196Z,6.31
2018-03-26T22:45:41.798Z,6.31
2018-03-26T22:48:09.341Z,6.28
2018-03-26T22:50:36.859Z,6.22
2018-03-26T22:53:04.377Z,6.20
2018-03-26T22:55:31.905Z,6.16
2018-03-26T22:57:59.409Z,6.15
2018-03-26T23:00:26.914Z,6.11
2018-03-26T23:02:54.437Z,6.05
2018-03-26T23:05:21.965Z,6.02
2018-03-26T23:07:49.480Z,5.95
2018-03-26T23:10:16.978Z,5.94
2018-03-26T23:12:44.523Z,5.94
2018-03-26T23:15:12.011Z,5.93
2018-03-26T23:17:39.589Z,5.93
2018-03-26T23:20:07.107Z,5.90
2018-03-26T23:22:46.437Z,5.86
2018-03-26T23:25:13.928Z,5.80
2018-03-26T23:27:41.459Z,5.77
2018-03-26T23:30:08.966Z,5.72
2018-03-26T23:32:36.528Z,5.66
2018-03-26T23:35:04.038Z,5.59
2018-03-26T23:37:31.565Z,5.54
2018-03-26T23:39:59.074Z,5.49
2018-03-26T23:42:26.626Z,5.46
2018-03-26T23:44:54.160Z,5.43
2018-03-26T23:47:21.705Z,5.38
2018-03-26T23:49:49.216Z,5.33
2018-03-26T23:52:16.744Z,5.29
2018-03-26T23:54:44.356Z,5.24
2018-03-26T23:57:11.890Z,5.20
2018-03-26T23:59:39.420Z,5.19
